sensor_id;sensor_type;location;lat;lon;timestamp;temperature;humidity
72762;SHT30;60886;55.034;73.150;2024-02-26T00:01:06;-6.11;78.70
72762;SHT30;60886;55.034;73.150;2024-02-26T00:04:08;-6.14;78.68
72762;SHT30;60886;55.034;73.150;2024-02-26T00:07:09;-6.20;78.22
72762;SHT30;60886;55.034;73.150;2024-02-26T00:10:12;-6.23;78.71
72762;SHT30;60886;55.034;73.150;2024-02-26T00:13:14;-6.28;78.78
72762;SHT30;60886;55.034;73.150;2024-02-26T00:16:15;-6.25;79.04
72762;SHT30;60886;55.034;73.150;2024-02-26T00:19:17;-6.21;79.00
72762;SHT30;60886;55.034;73.150;2024-02-26T00:22:18;-6.27;78.82
72762;SHT30;60886;55.034;73.150;2024-02-26T00:25:20;-6.31;78.85
72762;SHT30;60886;55.034;73.150;2024-02-26T00:28:28;-6.44;78.65
72762;SHT30;60886;55.034;73.150;2024-02-26T00:31:30;-6.55;78.86
72762;SHT30;60886;55.034;73.150;2024-02-26T00:34:32;-6.68;79.25
72762;SHT30;60886;55.034;73.150;2024-02-26T00:37:33;-6.62;79.22
72762;SHT30;60886;55.034;73.150;2024-02-26T00:40:35;-6.48;79.33
72762;SHT30;60886;55.034;73.150;2024-02-26T00:43:36;-6.55;78.85
72762;SHT30;60886;55.034;73.150;2024-02-26T00:46:40;-6.57;79.09
72762;SHT30;60886;55.034;73.150;2024-02-26T00:49:42;-6.57;78.91
72762;SHT30;60886;55.034;73.150;2024-02-26T00:52:43;-6.57;79.05
72762;SHT30;60886;55.034;73.150;2024-02-26T00:55:45;-6.54;78.94
72762;SHT30;60886;55.034;73.150;2024-02-26T00:58:47;-6.47;78.86
72762;SHT30;60886;55.034;73.150;2024-02-26T01:01:48;-6.37;78.76
72762;SHT30;60886;55.034;73.150;2024-02-26T01:04:50;-6.30;78.38
72762;SHT30;60886;55.034;73.150;2024-02-26T01:07:51;-6.24;78.40
72762;SHT30;60886;55.034;73.150;2024-02-26T01:10:53;-6.28;77.86
72762;SHT30;60886;55.034;73.150;2024-02-26T01:13:54;-6.49;77.90
72762;SHT30;60886;55.034;73.150;2024-02-26T01:16:57;-6.47;78.94
72762;SHT30;60886;55.034;73.150;2024-02-26T01:19:59;-6.57;78.21
72762;SHT30;60886;55.034;73.150;2024-02-26T01:23:01;-6.68;79.03
72762;SHT30;60886;55.034;73.150;2024-02-26T01:26:02;-6.68;79.10
72762;SHT30;60886;55.034;73.150;2024-02-26T01:29:06;-6.75;79.01
72762;SHT30;60886;55.034;73.150;2024-02-26T01:32:08;-6.81;79.43
72762;SHT30;60886;55.034;73.150;2024-02-26T01:35:09;-6.79;79.49
72762;SHT30;60886;55.034;73.150;2024-02-26T01:38:13;-6.69;79.39
72762;SHT30;60886;55.034;73.150;2024-02-26T01:41:15;-6.62;79.36
72762;SHT30;60886;55.034;73.150;2024-02-26T01:44:17;-6.64;79.23
72762;SHT30;60886;55.034;73.150;2024-02-26T01:47:19;-6.58;79.20
72762;SHT30;60886;55.034;73.150;2024-02-26T01:50:21;-6.62;78.62
72762;SHT30;60886;55.034;73.150;2024-02-26T01:53:28;-6.64;78.91
72762;SHT30;60886;55.034;73.150;2024-02-26T01:56:30;-6.67;79.20
72762;SHT30;60886;55.034;73.150;2024-02-26T01:59:35;-6.74;78.85
72762;SHT30;60886;55.034;73.150;2024-02-26T02:02:38;-6.74;79.25
72762;SHT30;60886;55.034;73.150;2024-02-26T02:05:40;-6.75;79.23
72762;SHT30;60886;55.034;73.150;2024-02-26T02:08:43;-6.69;79.42
72762;SHT30;60886;55.034;73.150;2024-02-26T02:11:45;-6.54;79.06
72762;SHT30;60886;55.034;73.150;2024-02-26T02:14:48;-6.47;78.62
72762;SHT30;60886;55.034;73.150;2024-02-26T02:17:53;-6.69;78.31
72762;SHT30;60886;55.034;73.150;2024-02-26T02:20:55;-6.64;79.05
72762;SHT30;60886;55.034;73.150;2024-02-26T02:24:01;-6.57;78.78
72762;SHT30;60886;55.034;73.150;2024-02-26T02:27:03;-6.64;78.47
72762;SHT30;60886;55.034;73.150;2024-02-26T02:30:06;-6.72;78.69
72762;SHT30;60886;55.034;73.150;2024-02-26T02:33:09;-6.69;78.97
72762;SHT30;60886;55.034;73.150;2024-02-26T02:36:12;-6.65;78.79
72762;SHT30;60886;55.034;73.150;2024-02-26T02:39:15;-6.74;78.87
72762;SHT30;60886;55.034;73.150;2024-02-26T02:42:17;-6.79;78.84
72762;SHT30;60886;55.034;73.150;2024-02-26T02:45:19;-6.77;78.99
72762;SHT30;60886;55.034;73.150;2024-02-26T02:48:28;-6.82;78.42
72762;SHT30;60886;55.034;73.150;2024-02-26T02:51:29;-6.85;79.04
72762;SHT30;60886;55.034;73.150;2024-02-26T02:54:31;-6.82;78.97
72762;SHT30;60886;55.034;73.150;2024-02-26T02:57:33;-6.89;78.68
72762;SHT30;60886;55.034;73.150;2024-02-26T03:00:34;-6.79;78.72
72762;SHT30;60886;55.034;73.150;2024-02-26T03:03:36;-6.77;78.35
72762;SHT30;60886;55.034;73.150;2024-02-26T03:06:38;-6.74;78.44
72762;SHT30;60886;55.034;73.150;2024-02-26T03:09:40;-6.79;78.50
72762;SHT30;60886;55.034;73.150;2024-02-26T03:12:42;-7.08;78.73
72762;SHT30;60886;55.034;73.150;2024-02-26T03:15:43;-7.16;79.24
72762;SHT30;60886;55.034;73.150;2024-02-26T03:18:45;-7.03;79.59
72762;SHT30;60886;55.034;73.150;2024-02-26T03:21:46;-7.24;78.97
72762;SHT30;60886;55.034;73.150;2024-02-26T03:24:48;-7.24;79.49
72762;SHT30;60886;55.034;73.150;2024-02-26T03:27:50;-7.19;79.35
72762;SHT30;60886;55.034;73.150;2024-02-26T03:30:52;-7.18;78.97
72762;SHT30;60886;55.034;73.150;2024-02-26T03:33:56;-7.02;79.17
72762;SHT30;60886;55.034;73.150;2024-02-26T03:36:58;-7.00;78.35
72762;SHT30;60886;55.034;73.150;2024-02-26T03:39:59;-6.85;78.72
72762;SHT30;60886;55.034;73.150;2024-02-26T03:43:06;-6.69;77.85
72762;SHT30;60886;55.034;73.150;2024-02-26T03:46:08;-6.62;77.60
72762;SHT30;60886;55.034;73.150;2024-02-26T03:49:12;-6.35;77.70
72762;SHT30;60886;55.034;73.150;2024-02-26T03:52:14;-6.04;77.03
72762;SHT30;60886;55.034;73.150;2024-02-26T03:55:16;-5.73;76.20
72762;SHT30;60886;55.034;73.150;2024-02-26T03:58:27;-5.36;75.31
72762;SHT30;60886;55.034;73.150;2024-02-26T04:01:29;-5.05;74.82
72762;SHT30;60886;55.034;73.150;2024-02-26T04:04:34;-4.53;73.94
72762;SHT30;60886;55.034;73.150;2024-02-26T04:07:35;-4.45;73.14
72762;SHT30;60886;55.034;73.150;2024-02-26T04:10:37;-4.42;73.44
72762;SHT30;60886;55.034;73.150;2024-02-26T04:13:40;-4.77;72.69
72762;SHT30;60886;55.034;73.150;2024-02-26T04:16:41;-4.64;74.53
72762;SHT30;60886;55.034;73.150;2024-02-26T04:19:43;-4.59;74.20
72762;SHT30;60886;55.034;73.150;2024-02-26T04:22:44;-4.33;73.66
72762;SHT30;60886;55.034;73.150;2024-02-26T04:25:46;-4.72;73.69
72762;SHT30;60886;55.034;73.150;2024-02-26T04:28:48;-4.56;73.85
72762;SHT30;60886;55.034;73.150;2024-02-26T04:31:49;-4.42;73.34
72762;SHT30;60886;55.034;73.150;2024-02-26T04:34:51;-4.32;73.46
72762;SHT30;60886;55.034;73.150;2024-02-26T04:37:52;-4.08;72.52
72762;SHT30;60886;55.034;73.150;2024-02-26T04:40:54;-3.89;71.98
72762;SHT30;60886;55.034;73.150;2024-02-26T04:43:55;-3.68;71.07
72762;SHT30;60886;55.034;73.150;2024-02-26T04:46:57;-3.74;70.59
72762;SHT30;60886;55.034;73.150;2024-02-26T04:49:59;-3.74;71.40
72762;SHT30;60886;55.034;73.150;2024-02-26T04:53:00;-3.64;71.53
72762;SHT30;60886;55.034;73.150;2024-02-26T04:56:02;-3.54;71.23
72762;SHT30;60886;55.034;73.150;2024-02-26T04:59:04;-3.46;70.46
72762;SHT30;60886;55.034;73.150;2024-02-26T05:02:06;-3.19;70.37
72762;SHT30;60886;55.034;73.150;2024-02-26T05:05:08;-3.13;69.83
72762;SHT30;60886;55.034;73.150;2024-02-26T05:08:10;-3.09;70.08
72762;SHT30;60886;55.034;73.150;2024-02-26T05:11:11;-2.97;69.87
72762;SHT30;60886;55.034;73.150;2024-02-26T05:14:13;-2.91;70.16
72762;SHT30;60886;55.034;73.150;2024-02-26T05:17:14;-2.76;69.44
72762;SHT30;60886;55.034;73.150;2024-02-26T05:20:16;-2.69;69.35
72762;SHT30;60886;55.034;73.150;2024-02-26T05:23:27;-2.66;69.35
72762;SHT30;60886;55.034;73.150;2024-02-26T05:26:29;-2.61;69.29
72762;SHT30;60886;55.034;73.150;2024-02-26T05:29:31;-2.66;69.71
72762;SHT30;60886;55.034;73.150;2024-02-26T05:32:32;-2.57;69.34
72762;SHT30;60886;55.034;73.150;2024-02-26T05:35:34;-2.57;69.24
72762;SHT30;60886;55.034;73.150;2024-02-26T05:38:36;-2.44;69.60
72762;SHT30;60886;55.034;73.150;2024-02-26T05:41:37;-2.20;68.39
72762;SHT30;60886;55.034;73.150;2024-02-26T05:44:39;-2.20;68.39
72762;SHT30;60886;55.034;73.150;2024-02-26T05:47:41;-2.15;69.07
72762;SHT30;60886;55.034;73.150;2024-02-26T05:50:46;-1.98;68.70
72762;SHT30;60886;55.034;73.150;2024-02-26T05:53:48;-2.03;68.58
72762;SHT30;60886;55.034;73.150;2024-02-26T05:56:55;-1.86;67.94
72762;SHT30;60886;55.034;73.150;2024-02-26T05:59:56;-1.66;67.49
72762;SHT30;60886;55.034;73.150;2024-02-26T06:02:58;-1.80;67.11
72762;SHT30;60886;55.034;73.150;2024-02-26T06:05:59;-1.83;67.50
72762;SHT30;60886;55.034;73.150;2024-02-26T06:09:01;-1.94;67.65
72762;SHT30;60886;55.034;73.150;2024-02-26T06:12:03;-1.87;67.91
72762;SHT30;60886;55.034;73.150;2024-02-26T06:15:05;-1.89;67.59
72762;SHT30;60886;55.034;73.150;2024-02-26T06:18:06;-2.17;68.21
72762;SHT30;60886;55.034;73.150;2024-02-26T06:21:11;-2.01;67.87
72762;SHT30;60886;55.034;73.150;2024-02-26T06:24:13;-1.74;67.18
72762;SHT30;60886;55.034;73.150;2024-02-26T06:27:15;-1.56;67.62
72762;SHT30;60886;55.034;73.150;2024-02-26T06:30:16;-1.34;67.07
72762;SHT30;60886;55.034;73.150;2024-02-26T06:33:27;-1.00;66.61
72762;SHT30;60886;55.034;73.150;2024-02-26T06:36:29;-0.67;66.04
72762;SHT30;60886;55.034;73.150;2024-02-26T06:39:32;-0.67;65.38
72762;SHT30;60886;55.034;73.150;2024-02-26T06:42:34;-0.74;65.27
72762;SHT30;60886;55.034;73.150;2024-02-26T06:45:35;-0.81;65.75
72762;SHT30;60886;55.034;73.150;2024-02-26T06:48:37;-0.98;66.38
72762;SHT30;60886;55.034;73.150;2024-02-26T06:51:38;-0.73;65.91
72762;SHT30;60886;55.034;73.150;2024-02-26T06:54:40;-0.71;66.16
72762;SHT30;60886;55.034;73.150;2024-02-26T06:57:43;-0.61;65.77
72762;SHT30;60886;55.034;73.150;2024-02-26T07:00:44;-0.43;64.68
72762;SHT30;60886;55.034;73.150;2024-02-26T07:03:47;-0.80;64.45
72762;SHT30;60886;55.034;73.150;2024-02-26T07:06:48;-0.80;66.19
72762;SHT30;60886;55.034;73.150;2024-02-26T07:09:50;-0.56;66.18
72762;SHT30;60886;55.034;73.150;2024-02-26T07:12:53;-0.49;65.95
72762;SHT30;60886;55.034;73.150;2024-02-26T07:15:54;-0.41;65.66
72762;SHT30;60886;55.034;73.150;2024-02-26T07:18:56;-0.23;64.56
72762;SHT30;60886;55.034;73.150;2024-02-26T07:21:57;-0.10;64.06
72762;SHT30;60886;55.034;73.150;2024-02-26T07:24:59;-0.52;65.27
72762;SHT30;60886;55.034;73.150;2024-02-26T07:28:01;-0.68;66.82
72762;SHT30;60886;55.034;73.150;2024-02-26T07:31:02;-0.54;65.90
72762;SHT30;60886;55.034;73.150;2024-02-26T07:34:04;-0.36;65.96
72762;SHT30;60886;55.034;73.150;2024-02-26T07:37:06;-0.05;64.02
72762;SHT30;60886;55.034;73.150;2024-02-26T07:40:08;0.14;63.95
72762;SHT30;60886;55.034;73.150;2024-02-26T07:43:12;0.28;63.70
72762;SHT30;60886;55.034;73.150;2024-02-26T07:46:13;0.50;62.95
72762;SHT30;60886;55.034;73.150;2024-02-26T07:49:15;0.68;62.56
72762;SHT30;60886;55.034;73.150;2024-02-26T07:52:16;0.48;62.80
72762;SHT30;60886;55.034;73.150;2024-02-26T07:55:18;0.49;63.04
72762;SHT30;60886;55.034;73.150;2024-02-26T07:58:27;0.46;63.93
72762;SHT30;60886;55.034;73.150;2024-02-26T08:01:29;0.55;63.25
72762;SHT30;60886;55.034;73.150;2024-02-26T08:04:31;0.66;63.34
72762;SHT30;60886;55.034;73.150;2024-02-26T08:07:32;0.62;63.04
72762;SHT30;60886;55.034;73.150;2024-02-26T08:10:34;0.56;62.48
72762;SHT30;60886;55.034;73.150;2024-02-26T08:13:35;0.55;63.66
72762;SHT30;60886;55.034;73.150;2024-02-26T08:16:37;0.66;63.50
72762;SHT30;60886;55.034;73.150;2024-02-26T08:19:39;0.68;63.80
72762;SHT30;60886;55.034;73.150;2024-02-26T08:22:40;0.62;64.66
72762;SHT30;60886;55.034;73.150;2024-02-26T08:25:42;0.68;64.46
72762;SHT30;60886;55.034;73.150;2024-02-26T08:28:43;0.59;64.28
72762;SHT30;60886;55.034;73.150;2024-02-26T08:31:45;0.59;64.40
72762;SHT30;60886;55.034;73.150;2024-02-26T08:34:47;0.30;64.00
72762;SHT30;60886;55.034;73.150;2024-02-26T08:37:48;0.05;66.06
72762;SHT30;60886;55.034;73.150;2024-02-26T08:40:50;0.02;66.02
72762;SHT30;60886;55.034;73.150;2024-02-26T08:43:52;0.25;65.28
72762;SHT30;60886;55.034;73.150;2024-02-26T08:46:53;0.29;65.35
72762;SHT30;60886;55.034;73.150;2024-02-26T08:49:55;0.21;65.19
72762;SHT30;60886;55.034;73.150;2024-02-26T08:52:56;-0.17;65.72
72762;SHT30;60886;55.034;73.150;2024-02-26T08:55:57;-0.33;67.05
72762;SHT30;60886;55.034;73.150;2024-02-26T08:58:59;-0.23;66.89
72762;SHT30;60886;55.034;73.150;2024-02-26T09:02:05;0.07;66.54
72762;SHT30;60886;55.034;73.150;2024-02-26T09:05:07;0.09;65.41
72762;SHT30;60886;55.034;73.150;2024-02-26T09:08:08;0.18;66.10
72762;SHT30;60886;55.034;73.150;2024-02-26T09:11:10;0.19;65.24
72762;SHT30;60886;55.034;73.150;2024-02-26T09:14:12;0.17;65.90
72762;SHT30;60886;55.034;73.150;2024-02-26T09:17:14;0.12;65.99
72762;SHT30;60886;55.034;73.150;2024-02-26T09:20:16;0.24;65.55
72762;SHT30;60886;55.034;73.150;2024-02-26T09:23:27;0.38;64.51
72762;SHT30;60886;55.034;73.150;2024-02-26T09:26:29;0.55;63.72
72762;SHT30;60886;55.034;73.150;2024-02-26T09:29:30;0.65;63.31
72762;SHT30;60886;55.034;73.150;2024-02-26T09:32:32;0.73;63.48
72762;SHT30;60886;55.034;73.150;2024-02-26T09:35:33;0.45;65.06
72762;SHT30;60886;55.034;73.150;2024-02-26T09:38:35;0.33;66.47
72762;SHT30;60886;55.034;73.150;2024-02-26T09:41:39;0.65;65.85
72762;SHT30;60886;55.034;73.150;2024-02-26T09:44:40;0.59;64.96
72762;SHT30;60886;55.034;73.150;2024-02-26T09:47:47;0.59;65.70
72762;SHT30;60886;55.034;73.150;2024-02-26T09:50:49;0.56;65.59
72762;SHT30;60886;55.034;73.150;2024-02-26T09:53:52;0.62;65.18
72762;SHT30;60886;55.034;73.150;2024-02-26T09:56:55;0.66;65.93
72762;SHT30;60886;55.034;73.150;2024-02-26T10:00:02;0.84;64.83
72762;SHT30;60886;55.034;73.150;2024-02-26T10:03:13;0.86;64.98
72762;SHT30;60886;55.034;73.150;2024-02-26T10:06:17;0.93;65.13
72762;SHT30;60886;55.034;73.150;2024-02-26T10:09:19;0.96;65.20
72762;SHT30;60886;55.034;73.150;2024-02-26T10:12:21;0.89;64.18
72762;SHT30;60886;55.034;73.150;2024-02-26T10:15:23;0.89;63.55
72762;SHT30;60886;55.034;73.150;2024-02-26T10:18:27;0.63;64.41
72762;SHT30;60886;55.034;73.150;2024-02-26T10:21:29;0.52;65.81
72762;SHT30;60886;55.034;73.150;2024-02-26T10:24:30;0.58;66.06
72762;SHT30;60886;55.034;73.150;2024-02-26T10:27:32;0.37;66.06
72762;SHT30;60886;55.034;73.150;2024-02-26T10:30:36;0.17;67.02
72762;SHT30;60886;55.034;73.150;2024-02-26T10:33:39;0.15;67.77
72762;SHT30;60886;55.034;73.150;2024-02-26T10:36:41;0.02;67.20
72762;SHT30;60886;55.034;73.150;2024-02-26T10:39:46;0.09;68.49
72762;SHT30;60886;55.034;73.150;2024-02-26T10:42:49;-0.01;67.73
72762;SHT30;60886;55.034;73.150;2024-02-26T10:45:50;0.01;68.25
72762;SHT30;60886;55.034;73.150;2024-02-26T10:48:53;-0.02;67.88
72762;SHT30;60886;55.034;73.150;2024-02-26T10:51:56;0.15;68.28
72762;SHT30;60886;55.034;73.150;2024-02-26T10:55:02;0.09;67.73
72762;SHT30;60886;55.034;73.150;2024-02-26T10:58:07;0.07;67.77
72762;SHT30;60886;55.034;73.150;2024-02-26T11:01:10;-0.34;68.05
72762;SHT30;60886;55.034;73.150;2024-02-26T11:04:13;-0.53;69.83
72762;SHT30;60886;55.034;73.150;2024-02-26T11:07:17;-0.52;69.90
72762;SHT30;60886;55.034;73.150;2024-02-26T11:10:38;-0.38;70.31
72762;SHT30;60886;55.034;73.150;2024-02-26T11:13:42;-0.27;69.64
72762;SHT30;60886;55.034;73.150;2024-02-26T11:16:47;-0.38;69.23
72762;SHT30;60886;55.034;73.150;2024-02-26T11:19:51;-0.50;70.03
72762;SHT30;60886;55.034;73.150;2024-02-26T11:22:54;-0.46;69.39
72762;SHT30;60886;55.034;73.150;2024-02-26T11:25:58;-0.41;69.91
72762;SHT30;60886;55.034;73.150;2024-02-26T11:29:01;-0.46;69.74
72762;SHT30;60886;55.034;73.150;2024-02-26T11:32:03;-0.54;70.55
72762;SHT30;60886;55.034;73.150;2024-02-26T11:35:06;-0.68;69.88
72762;SHT30;60886;55.034;73.150;2024-02-26T11:38:17;-0.77;70.11
72762;SHT30;60886;55.034;73.150;2024-02-26T11:41:24;-0.73;70.95
72762;SHT30;60886;55.034;73.150;2024-02-26T11:44:29;-0.70;70.66
72762;SHT30;60886;55.034;73.150;2024-02-26T11:47:34;-0.78;70.76
72762;SHT30;60886;55.034;73.150;2024-02-26T11:50:39;-0.78;70.96
72762;SHT30;60886;55.034;73.150;2024-02-26T11:53:47;-0.81;71.12
72762;SHT30;60886;55.034;73.150;2024-02-26T11:56:51;-0.84;71.00
72762;SHT30;60886;55.034;73.150;2024-02-26T11:59:53;-0.81;71.28
72762;SHT30;60886;55.034;73.150;2024-02-26T12:02:55;-0.83;71.46
72762;SHT30;60886;55.034;73.150;2024-02-26T12:06:03;-0.81;71.71
72762;SHT30;60886;55.034;73.150;2024-02-26T12:09:07;-0.81;72.07
72762;SHT30;60886;55.034;73.150;2024-02-26T12:12:11;-1.00;72.52
72762;SHT30;60886;55.034;73.150;2024-02-26T12:15:15;-1.08;73.64
72762;SHT30;60886;55.034;73.150;2024-02-26T12:18:28;-1.09;74.20
72762;SHT30;60886;55.034;73.150;2024-02-26T12:21:33;-1.18;74.71
72762;SHT30;60886;55.034;73.150;2024-02-26T12:24:58;-1.22;75.63
72762;SHT30;60886;55.034;73.150;2024-02-26T12:28:00;-1.35;75.39
72762;SHT30;60886;55.034;73.150;2024-02-26T12:31:19;-1.36;76.27
72762;SHT30;60886;55.034;73.150;2024-02-26T12:34:21;-1.32;76.38
72762;SHT30;60886;55.034;73.150;2024-02-26T12:37:23;-1.32;76.69
72762;SHT30;60886;55.034;73.150;2024-02-26T12:40:42;-1.34;77.03
72762;SHT30;60886;55.034;73.150;2024-02-26T12:43:44;-1.45;76.95
72762;SHT30;60886;55.034;73.150;2024-02-26T12:46:45;-1.65;77.65
72762;SHT30;60886;55.034;73.150;2024-02-26T12:50:08;-1.66;78.61
72762;SHT30;60886;55.034;73.150;2024-02-26T12:53:27;-1.67;78.77
72762;SHT30;60886;55.034;73.150;2024-02-26T12:56:29;-1.70;79.02
72762;SHT30;60886;55.034;73.150;2024-02-26T12:59:47;-1.69;79.10
72762;SHT30;60886;55.034;73.150;2024-02-26T13:02:50;-1.70;79.14
72762;SHT30;60886;55.034;73.150;2024-02-26T13:06:11;-1.73;79.24
72762;SHT30;60886;55.034;73.150;2024-02-26T13:09:14;-1.82;79.11
72762;SHT30;60886;55.034;73.150;2024-02-26T13:12:16;-1.96;79.78
72762;SHT30;60886;55.034;73.150;2024-02-26T13:15:20;-2.03;80.07
72762;SHT30;60886;55.034;73.150;2024-02-26T13:18:28;-2.08;79.70
72762;SHT30;60886;55.034;73.150;2024-02-26T13:21:32;-2.10;80.38
72762;SHT30;60886;55.034;73.150;2024-02-26T13:24:34;-2.10;80.46
72762;SHT30;60886;55.034;73.150;2024-02-26T13:27:36;-2.13;80.38
72762;SHT30;60886;55.034;73.150;2024-02-26T13:30:38;-2.15;80.38
72762;SHT30;60886;55.034;73.150;2024-02-26T13:33:39;-2.18;80.46
72762;SHT30;60886;55.034;73.150;2024-02-26T13:36:41;-2.26;80.48
72762;SHT30;60886;55.034;73.150;2024-02-26T13:39:42;-2.31;80.99
72762;SHT30;60886;55.034;73.150;2024-02-26T13:42:44;-2.33;80.92
72762;SHT30;60886;55.034;73.150;2024-02-26T13:45:46;-2.30;81.18
72762;SHT30;60886;55.034;73.150;2024-02-26T13:49:09;-2.34;81.08
72762;SHT30;60886;55.034;73.150;2024-02-26T13:52:11;-2.24;81.28
72762;SHT30;60886;55.034;73.150;2024-02-26T13:55:13;-2.24;81.12
72762;SHT30;60886;55.034;73.150;2024-02-26T13:58:27;-2.30;80.86
72762;SHT30;60886;55.034;73.150;2024-02-26T14:01:30;-2.31;80.92
72762;SHT30;60886;55.034;73.150;2024-02-26T14:04:34;-2.30;80.95
72762;SHT30;60886;55.034;73.150;2024-02-26T14:07:36;-2.30;80.92
72762;SHT30;60886;55.034;73.150;2024-02-26T14:10:37;-2.28;80.92
72762;SHT30;60886;55.034;73.150;2024-02-26T14:13:39;-2.33;80.97
72762;SHT30;60886;55.034;73.150;2024-02-26T14:16:41;-2.28;81.09
72762;SHT30;60886;55.034;73.150;2024-02-26T14:19:42;-2.26;81.21
72762;SHT30;60886;55.034;73.150;2024-02-26T14:22:52;-2.37;80.61
72762;SHT30;60886;55.034;73.150;2024-02-26T14:25:54;-2.37;81.10
72762;SHT30;60886;55.034;73.150;2024-02-26T14:28:56;-2.47;81.17
72762;SHT30;60886;55.034;73.150;2024-02-26T14:31:57;-2.36;81.42
72762;SHT30;60886;55.034;73.150;2024-02-26T14:34:59;-2.36;81.31
72762;SHT30;60886;55.034;73.150;2024-02-26T14:38:01;-2.38;81.17
72762;SHT30;60886;55.034;73.150;2024-02-26T14:41:03;-2.40;81.16
72762;SHT30;60886;55.034;73.150;2024-02-26T14:44:04;-2.42;81.48
72762;SHT30;60886;55.034;73.150;2024-02-26T14:47:06;-2.44;81.10
72762;SHT30;60886;55.034;73.150;2024-02-26T14:50:08;-2.40;81.19
72762;SHT30;60886;55.034;73.150;2024-02-26T14:53:11;-2.51;81.12
72762;SHT30;60886;55.034;73.150;2024-02-26T14:56:12;-2.55;81.67
72762;SHT30;60886;55.034;73.150;2024-02-26T14:59:14;-2.62;81.80
72762;SHT30;60886;55.034;73.150;2024-02-26T15:02:16;-2.61;82.25
72762;SHT30;60886;55.034;73.150;2024-02-26T15:05:18;-2.52;82.24
72762;SHT30;60886;55.034;73.150;2024-02-26T15:08:27;-2.58;81.96
72762;SHT30;60886;55.034;73.150;2024-02-26T15:11:29;-2.51;82.06
72762;SHT30;60886;55.034;73.150;2024-02-26T15:14:30;-2.55;82.07
72762;SHT30;60886;55.034;73.150;2024-02-26T15:17:32;-2.57;81.96
72762;SHT30;60886;55.034;73.150;2024-02-26T15:20:35;-2.51;81.85
72762;SHT30;60886;55.034;73.150;2024-02-26T15:23:37;-2.62;81.64
72762;SHT30;60886;55.034;73.150;2024-02-26T15:26:39;-2.58;82.20
72762;SHT30;60886;55.034;73.150;2024-02-26T15:29:43;-2.57;81.80
72762;SHT30;60886;55.034;73.150;2024-02-26T15:32:44;-2.61;82.05
72762;SHT30;60886;55.034;73.150;2024-02-26T15:35:46;-2.57;82.09
72762;SHT30;60886;55.034;73.150;2024-02-26T15:38:47;-2.51;82.04
72762;SHT30;60886;55.034;73.150;2024-02-26T15:41:49;-2.49;81.82
72762;SHT30;60886;55.034;73.150;2024-02-26T15:44:50;-2.61;81.74
72762;SHT30;60886;55.034;73.150;2024-02-26T15:47:52;-2.54;82.12
72762;SHT30;60886;55.034;73.150;2024-02-26T15:50:53;-2.59;81.82
72762;SHT30;60886;55.034;73.150;2024-02-26T15:53:55;-2.61;81.93
72762;SHT30;60886;55.034;73.150;2024-02-26T15:56:56;-2.57;82.10
72762;SHT30;60886;55.034;73.150;2024-02-26T15:59:59;-2.54;81.97
72762;SHT30;60886;55.034;73.150;2024-02-26T16:03:14;-2.54;81.92
72762;SHT30;60886;55.034;73.150;2024-02-26T16:09:24;-2.51;81.58
72762;SHT30;60886;55.034;73.150;2024-02-26T16:12:51;-2.48;81.61
72762;SHT30;60886;55.034;73.150;2024-02-26T16:16:01;-2.51;81.59
72762;SHT30;60886;55.034;73.150;2024-02-26T16:19:12;-2.59;81.51
72762;SHT30;60886;55.034;73.150;2024-02-26T16:22:14;-2.58;81.86
72762;SHT30;60886;55.034;73.150;2024-02-26T16:25:17;-2.58;81.68
72762;SHT30;60886;55.034;73.150;2024-02-26T16:28:27;-2.59;81.75
72762;SHT30;60886;55.034;73.150;2024-02-26T16:31:28;-2.52;81.78
72762;SHT30;60886;55.034;73.150;2024-02-26T16:34:30;-2.49;81.45
72762;SHT30;60886;55.034;73.150;2024-02-26T16:37:33;-2.58;81.13
72762;SHT30;60886;55.034;73.150;2024-02-26T16:40:36;-2.61;81.38
72762;SHT30;60886;55.034;73.150;2024-02-26T16:43:38;-2.72;81.26
72762;SHT30;60886;55.034;73.150;2024-02-26T16:46:39;-2.69;81.86
72762;SHT30;60886;55.034;73.150;2024-02-26T16:49:41;-2.66;81.95
72762;SHT30;60886;55.034;73.150;2024-02-26T16:52:42;-2.61;81.86
72762;SHT30;60886;55.034;73.150;2024-02-26T16:55:44;-2.57;81.54
72762;SHT30;60886;55.034;73.150;2024-02-26T16:58:45;-2.55;81.35
72762;SHT30;60886;55.034;73.150;2024-02-26T17:01:47;-2.66;81.25
72762;SHT30;60886;55.034;73.150;2024-02-26T17:04:49;-2.72;81.96
72762;SHT30;60886;55.034;73.150;2024-02-26T17:07:51;-2.59;82.19
72762;SHT30;60886;55.034;73.150;2024-02-26T17:10:52;-2.59;81.96
72762;SHT30;60886;55.034;73.150;2024-02-26T17:13:54;-2.61;81.78
72762;SHT30;60886;55.034;73.150;2024-02-26T17:16:56;-2.66;81.76
72762;SHT30;60886;55.034;73.150;2024-02-26T17:19:57;-2.76;82.07
72762;SHT30;60886;55.034;73.150;2024-02-26T17:22:58;-2.75;82.45
72762;SHT30;60886;55.034;73.150;2024-02-26T17:26:00;-2.66;82.71
72762;SHT30;60886;55.034;73.150;2024-02-26T17:29:02;-2.57;82.56
72762;SHT30;60886;55.034;73.150;2024-02-26T17:32:04;-2.57;82.14
72762;SHT30;60886;55.034;73.150;2024-02-26T17:35:06;-2.55;82.37
72762;SHT30;60886;55.034;73.150;2024-02-26T17:38:08;-2.57;82.42
72762;SHT30;60886;55.034;73.150;2024-02-26T17:41:09;-2.58;82.49
72762;SHT30;60886;55.034;73.150;2024-02-26T17:44:11;-2.61;82.48
72762;SHT30;60886;55.034;73.150;2024-02-26T17:47:13;-2.68;82.44
72762;SHT30;60886;55.034;73.150;2024-02-26T17:50:14;-2.73;82.60
72762;SHT30;60886;55.034;73.150;2024-02-26T17:53:27;-2.71;82.78
72762;SHT30;60886;55.034;73.150;2024-02-26T17:56:28;-2.68;82.62
72762;SHT30;60886;55.034;73.150;2024-02-26T17:59:30;-2.64;82.51
72762;SHT30;60886;55.034;73.150;2024-02-26T18:02:33;-2.66;82.21
72762;SHT30;60886;55.034;73.150;2024-02-26T18:05:34;-2.81;82.21
72762;SHT30;60886;55.034;73.150;2024-02-26T18:08:36;-2.88;82.61
72762;SHT30;60886;55.034;73.150;2024-02-26T18:11:37;-2.93;82.75
72762;SHT30;60886;55.034;73.150;2024-02-26T18:14:39;-3.03;82.91
72762;SHT30;60886;55.034;73.150;2024-02-26T18:17:41;-3.06;83.46
72762;SHT30;60886;55.034;73.150;2024-02-26T18:20:43;-3.04;83.43
72762;SHT30;60886;55.034;73.150;2024-02-26T18:23:44;-3.07;83.57
72762;SHT30;60886;55.034;73.150;2024-02-26T18:26:46;-2.99;83.56
72762;SHT30;60886;55.034;73.150;2024-02-26T18:29:50;-3.03;83.05
72762;SHT30;60886;55.034;73.150;2024-02-26T18:32:52;-3.03;83.16
72762;SHT30;60886;55.034;73.150;2024-02-26T18:35:53;-3.07;83.24
72762;SHT30;60886;55.034;73.150;2024-02-26T18:38:55;-3.13;83.06
72762;SHT30;60886;55.034;73.150;2024-02-26T18:41:58;-3.16;83.15
72762;SHT30;60886;55.034;73.150;2024-02-26T18:44:59;-3.13;83.45
72762;SHT30;60886;55.034;73.150;2024-02-26T18:48:01;-3.07;83.33
72762;SHT30;60886;55.034;73.150;2024-02-26T18:51:04;-3.16;82.93
72762;SHT30;60886;55.034;73.150;2024-02-26T18:54:06;-3.06;82.93
72762;SHT30;60886;55.034;73.150;2024-02-26T18:57:07;-3.10;82.46
72762;SHT30;60886;55.034;73.150;2024-02-26T19:00:09;-3.13;82.55
72762;SHT30;60886;55.034;73.150;2024-02-26T19:03:12;-3.13;82.47